Time;durP1;ratioP1;P1;durP2;ratioP2;P2;SDS_P1;SDS_P2;PMS_P1;PMS_P2;Temp;Humidity;BMP_temperature;BMP_pressure;BME280_temperature;BME280_humidity;BME280_pressure;Samples;Min_cycle;Max_cycle;Signal;HPM_P1;HPM_P2
2021/11/07 00:04:37;;;;;;;2.05;1.02;;;12.80;99.90;;;;;;4881756;29;20084;-59
2021/11/07 00:12:01;;;;;;;2.30;1.50;;;12.70;99.90;;;;;;4873383;29;20108;-59
2021/11/07 00:14:28;;;;;;;1.52;1.27;;;12.70;99.90;;;;;;4869762;29;20516;-59
2021/11/07 00:16:56;;;;;;;2.92;1.15;;;12.70;99.90;;;;;;4869079;29;20190;-59
2021/11/07 00:19:32;;;;;;;2.83;1.13;;;12.70;99.90;;;;;;4869845;29;20488;-59
2021/11/07 00:22:14;;;;;;;2.13;1.60;;;12.70;99.90;;;;;;4866571;29;20140;-59
2021/11/07 00:24:48;;;;;;;1.02;0.90;;;12.70;99.90;;;;;;4870820;29;20437;-59
2021/11/07 00:27:50;;;;;;;1.92;1.25;;;12.70;99.90;;;;;;4854320;29;20501;-59
2021/11/07 00:37:43;;;;;;;2.70;1.45;;;12.70;99.90;;;;;;4852606;29;20084;-59
2021/11/07 00:43:07;;;;;;;2.00;1.30;;;12.70;99.90;;;;;;4869769;29;20132;-59
2021/11/07 00:50:29;;;;;;;1.88;1.40;;;12.60;99.90;;;;;;4869661;29;20507;-59
2021/11/07 00:53:12;;;;;;;2.45;1.67;;;12.60;99.90;;;;;;4867644;29;20136;-59
2021/11/07 00:55:48;;;;;;;1.90;1.40;;;12.60;99.90;;;;;;4869908;29;20122;-59
2021/11/07 00:58:19;;;;;;;3.22;1.52;;;12.60;99.90;;;;;;4870004;29;20084;-59
2021/11/07 01:00:58;;;;;;;1.83;1.23;;;12.60;99.90;;;;;;4869792;29;20160;-59
2021/11/07 01:03:26;;;;;;;1.80;1.20;;;12.60;99.90;;;;;;4854612;29;20147;-59
2021/11/07 01:05:57;;;;;;;1.83;1.25;;;12.60;99.90;;;;;;4885657;29;20049;-59
2021/11/07 01:08:24;;;;;;;2.20;1.48;;;12.60;99.90;;;;;;4887800;29;20289;-59
2021/11/07 01:10:50;;;;;;;1.25;1.00;;;12.60;99.90;;;;;;4888383;29;20052;-59
2021/11/07 01:13:17;;;;;;;1.85;1.13;;;12.60;99.90;;;;;;4888425;29;20468;-59
2021/11/07 01:15:44;;;;;;;2.50;1.20;;;12.60;99.90;;;;;;4871088;29;20457;-59
2021/11/07 01:18:11;;;;;;;2.47;1.35;;;12.60;99.90;;;;;;4871231;29;20139;-59
2021/11/07 01:20:37;;;;;;;2.33;1.27;;;12.60;99.90;;;;;;4870885;29;20446;-60
2021/11/07 01:25:37;;;;;;;2.38;1.77;;;12.60;99.90;;;;;;4887870;29;20472;-59
2021/11/07 01:28:05;;;;;;;2.17;1.40;;;12.60;99.90;;;;;;4871917;29;20556;-59
2021/11/07 01:30:37;;;;;;;1.98;1.33;;;12.70;99.90;;;;;;4887973;29;20190;-59
2021/11/07 01:33:10;;;;;;;2.03;1.60;;;12.60;99.90;;;;;;4871485;29;20080;-59
2021/11/07 01:35:43;;;;;;;1.92;1.30;;;12.60;99.90;;;;;;4886997;29;20211;-59
2021/11/07 01:38:13;;;;;;;2.33;1.40;;;12.60;99.90;;;;;;4886583;29;20389;-59
2021/11/07 01:40:57;;;;;;;4.03;1.38;;;12.60;99.90;;;;;;4887326;29;20075;-59
2021/11/07 01:43:24;;;;;;;2.05;1.40;;;12.60;99.90;;;;;;4883097;29;20140;-59
2021/11/07 01:46:00;;;;;;;3.00;1.40;;;12.60;99.90;;;;;;4881774;29;20080;-59
2021/11/07 01:48:30;;;;;;;2.33;1.25;;;12.50;99.90;;;;;;4885572;29;20445;-59
2021/11/07 01:50:57;;;;;;;1.83;1.50;;;12.50;99.90;;;;;;4884802;29;20136;-59
2021/11/07 01:55:56;;;;;;;2.50;1.40;;;12.50;99.90;;;;;;4884320;29;20116;-59
2021/11/07 01:58:27;;;;;;;2.70;1.75;;;12.50;99.90;;;;;;4887493;29;20232;-59
2021/11/07 02:00:54;;;;;;;2.97;1.77;;;12.40;99.90;;;;;;4870637;29;20202;-59
2021/11/07 02:03:21;;;;;;;1.75;1.30;;;12.40;99.90;;;;;;4878582;29;20052;-59
2021/11/07 02:05:48;;;;;;;1.70;1.15;;;12.40;99.90;;;;;;4862900;29;20467;-59
2021/11/07 02:08:15;;;;;;;2.45;1.65;;;12.40;99.90;;;;;;4884076;29;20583;-59
2021/11/07 02:10:42;;;;;;;2.05;1.42;;;12.30;99.90;;;;;;4869654;29;20131;-59
2021/11/07 02:13:09;;;;;;;2.85;1.80;;;12.30;99.90;;;;;;4881700;29;20077;-59
2021/11/07 02:15:36;;;;;;;2.33;1.60;;;12.30;99.90;;;;;;4852281;29;20052;-59
2021/11/07 02:18:03;;;;;;;2.13;1.17;;;12.20;99.90;;;;;;4879132;29;20082;-59
2021/11/07 02:20:39;;;;;;;2.20;1.38;;;12.20;99.90;;;;;;4886629;29;20056;-59
2021/11/07 02:23:12;;;;;;;2.53;1.67;;;12.10;99.90;;;;;;4883186;29;20151;-59
2021/11/07 02:25:40;;;;;;;2.97;1.67;;;12.00;99.90;;;;;;4881923;29;20076;-59
2021/11/07 02:28:07;;;;;;;2.63;1.40;;;12.00;99.90;;;;;;4870038;29;20084;-59
2021/11/07 02:30:34;;;;;;;2.55;1.52;;;11.90;99.90;;;;;;4886307;29;20092;-59
2021/11/07 02:33:01;;;;;;;2.90;1.98;;;11.90;99.90;;;;;;4883178;29;20084;-59
2021/11/07 02:35:28;;;;;;;1.88;1.23;;;11.90;99.90;;;;;;4879421;29;20136;-59
2021/11/07 02:37:55;;;;;;;2.00;1.42;;;11.80;99.90;;;;;;4886154;29;20193;-58
2021/11/07 02:40:22;;;;;;;3.00;1.90;;;11.80;99.90;;;;;;4891938;29;20083;-59
2021/11/07 02:42:49;;;;;;;1.85;1.30;;;11.80;99.90;;;;;;4872694;29;20072;-59
2021/11/07 02:45:17;;;;;;;2.22;1.20;;;11.80;99.90;;;;;;4888467;29;20076;-60
2021/11/07 02:47:48;;;;;;;2.70;1.48;;;11.70;99.90;;;;;;4889913;29;21312;-60
2021/11/07 02:50:16;;;;;;;4.93;1.95;;;11.70;99.90;;;;;;4890214;29;20049;-59
2021/11/07 02:52:44;;;;;;;3.08;1.73;;;11.70;98.00;;;;;;4888563;29;20517;-60
2021/11/07 02:55:10;;;;;;;2.70;1.67;;;11.80;97.20;;;;;;4890802;29;20473;-60
2021/11/07 02:57:38;;;;;;;5.40;2.03;;;11.80;97.10;;;;;;4892482;29;20135;-60
2021/11/07 03:00:09;;;;;;;4.22;1.77;;;11.70;96.20;;;;;;4894781;29;20104;-60
2021/11/07 03:02:36;;;;;;;4.95;1.80;;;11.70;96.20;;;;;;4894349;29;20076;-60
2021/11/07 03:05:07;;;;;;;4.45;1.98;;;11.60;94.30;;;;;;4877931;29;20083;-60
2021/11/07 03:07:34;;;;;;;3.58;1.40;;;11.60;93.70;;;;;;4859111;29;20148;-60
2021/11/07 03:10:02;;;;;;;6.05;2.00;;;11.50;93.30;;;;;;4875874;29;20084;-60
2021/11/07 03:12:29;;;;;;;5.00;1.80;;;11.40;92.50;;;;;;4828288;29;20063;-60
2021/11/07 03:14:56;;;;;;;2.92;1.20;;;11.40;92.70;;;;;;4881763;29;20585;-60
2021/11/07 03:17:24;;;;;;;4.72;1.67;;;11.30;92.90;;;;;;4874779;29;20596;-60
2021/11/07 03:19:53;;;;;;;3.53;1.10;;;11.30;92.90;;;;;;4888626;29;20091;-60
2021/11/07 03:22:28;;;;;;;6.18;1.80;;;11.30;92.80;;;;;;4874895;29;20140;-60
2021/11/07 03:24:55;;;;;;;4.20;1.65;;;11.20;92.70;;;;;;4884664;29;20045;-60
2021/11/07 03:27:37;;;;;;;5.45;1.65;;;11.20;92.90;;;;;;4874967;29;20049;-60
2021/11/07 03:30:28;;;;;;;2.83;1.25;;;11.10;93.00;;;;;;4875811;29;20109;-60
2021/11/07 03:33:06;;;;;;;6.60;1.80;;;11.00;93.40;;;;;;4875464;29;20085;-60
2021/11/07 03:35:33;;;;;;;4.53;1.67;;;10.90;93.30;;;;;;4887559;29;20092;-60
2021/11/07 03:38:00;;;;;;;5.43;1.85;;;10.90;93.20;;;;;;4892246;29;20516;-60
2021/11/07 03:40:27;;;;;;;3.08;1.20;;;10.80;92.90;;;;;;4893811;29;20087;-60
2021/11/07 03:42:55;;;;;;;4.13;1.77;;;10.70;93.10;;;;;;4877103;29;20057;-60
2021/11/07 03:45:22;;;;;;;4.47;2.30;;;10.70;93.20;;;;;;4880323;29;20091;-60
2021/11/07 03:47:48;;;;;;;3.35;1.45;;;10.60;93.10;;;;;;4877614;29;20127;-60
2021/11/07 03:50:16;;;;;;;3.17;1.40;;;10.60;93.60;;;;;;4893411;29;20080;-60
2021/11/07 03:52:43;;;;;;;4.13;1.35;;;10.60;93.30;;;;;;4892008;29;20052;-60
2021/11/07 03:55:10;;;;;;;3.70;1.83;;;10.50;93.00;;;;;;4893836;29;20087;-60
2021/11/07 03:57:37;;;;;;;5.43;1.58;;;10.50;93.20;;;;;;4892916;29;20091;-60
2021/11/07 04:00:07;;;;;;;4.72;1.50;;;10.50;93.20;;;;;;4893637;29;20097;-59
2021/11/07 04:02:34;;;;;;;3.13;1.42;;;10.40;93.20;;;;;;4874296;29;20559;-60
2021/11/07 04:05:01;;;;;;;3.47;1.50;;;10.40;93.40;;;;;;4880623;29;20077;-60
2021/11/07 04:07:27;;;;;;;4.55;1.40;;;10.40;93.30;;;;;;4872147;29;20057;-60
2021/11/07 04:09:54;;;;;;;5.95;1.92;;;10.30;93.30;;;;;;4874598;29;20080;-60
2021/11/07 04:12:21;;;;;;;3.45;1.48;;;10.30;93.70;;;;;;4877751;29;20112;-60
2021/11/07 04:14:48;;;;;;;5.57;1.83;;;10.30;93.40;;;;;;4876624;29;20131;-60
2021/11/07 04:17:15;;;;;;;4.45;1.58;;;10.20;93.40;;;;;;4893111;29;20132;-60
2021/11/07 04:19:41;;;;;;;2.40;1.25;;;10.20;93.30;;;;;;4876853;29;20500;-60
2021/11/07 04:22:11;;;;;;;3.03;1.20;;;10.20;93.40;;;;;;4874149;29;20451;-60
2021/11/07 04:24:38;;;;;;;2.20;1.00;;;10.10;93.10;;;;;;4861507;29;20139;-60
2021/11/07 04:27:04;;;;;;;4.35;1.52;;;10.10;93.20;;;;;;4892624;29;20139;-60
2021/11/07 04:29:31;;;;;;;3.58;1.52;;;10.10;93.20;;;;;;4893260;29;20087;-60
2021/11/07 04:31:58;;;;;;;3.83;1.20;;;10.10;93.20;;;;;;4892427;29;20131;-60
2021/11/07 04:34:25;;;;;;;1.85;1.08;;;10.10;93.10;;;;;;4892356;29;20087;-60
2021/11/07 04:36:53;;;;;;;3.75;1.05;;;10.10;92.60;;;;;;4890718;29;20100;-60
2021/11/07 04:39:20;;;;;;;2.08;0.98;;;10.10;92.40;;;;;;4876782;29;20178;-60
2021/11/07 04:41:48;;;;;;;2.55;1.20;;;10.10;92.30;;;;;;4892137;29;20048;-60
2021/11/07 04:44:14;;;;;;;2.50;1.13;;;10.10;92.20;;;;;;4892791;29;20136;-60
2021/11/07 04:46:41;;;;;;;3.67;1.33;;;10.10;91.90;;;;;;4892227;29;20585;-60
2021/11/07 04:49:08;;;;;;;4.50;1.83;;;10.10;91.80;;;;;;4876460;29;20148;-60
2021/11/07 04:51:35;;;;;;;2.80;1.40;;;10.10;91.70;;;;;;4889715;29;20092;-60
2021/11/07 04:54:01;;;;;;;2.58;1.30;;;10.10;91.60;;;;;;4892346;29;20084;-60
2021/11/07 04:56:29;;;;;;;3.08;1.25;;;10.10;91.60;;;;;;4891926;29;20171;-60
2021/11/07 04:58:56;;;;;;;4.47;1.70;;;10.10;91.50;;;;;;4875970;29;20064;-60
2021/11/07 05:01:23;;;;;;;5.25;1.48;;;10.10;91.40;;;;;;4891875;29;20163;-64
2021/11/07 05:03:50;;;;;;;3.17;1.25;;;10.10;91.60;;;;;;4892121;29;20710;-60
2021/11/07 05:06:16;;;;;;;2.38;1.00;;;10.10;91.60;;;;;;4871857;29;20080;-60
2021/11/07 05:08:43;;;;;;;4.35;1.95;;;10.10;91.70;;;;;;4875590;29;20049;-60
2021/11/07 05:11:10;;;;;;;3.67;1.27;;;10.00;91.80;;;;;;4891806;29;20088;-60
2021/11/07 05:13:37;;;;;;;2.90;1.20;;;10.00;91.90;;;;;;4892449;29;20762;-60
2021/11/07 05:16:04;;;;;;;3.60;1.55;;;10.00;92.00;;;;;;4891605;29;20128;-60
2021/11/07 05:18:31;;;;;;;3.17;1.20;;;9.90;92.20;;;;;;4891962;29;20136;-60
2021/11/07 05:20:58;;;;;;;2.40;1.33;;;9.90;92.30;;;;;;4890749;29;20084;-60
2021/11/07 05:23:25;;;;;;;3.78;1.38;;;9.90;92.50;;;;;;4874842;29;20489;-60
2021/11/07 05:25:52;;;;;;;3.10;0.90;;;9.80;92.60;;;;;;4891724;29;20464;-60
2021/11/07 05:28:18;;;;;;;4.00;0.90;;;9.80;92.60;;;;;;4891847;29;20084;-60
2021/11/07 05:30:45;;;;;;;2.70;1.25;;;9.80;92.70;;;;;;4891062;29;20112;-60
2021/11/07 05:33:12;;;;;;;5.95;1.20;;;9.80;92.80;;;;;;4891973;29;20057;-60
2021/11/07 05:35:39;;;;;;;3.38;1.02;;;9.70;92.90;;;;;;4888754;29;20235;-61
2021/11/07 05:38:06;;;;;;;3.88;1.33;;;9.70;93.00;;;;;;4890375;29;20080;-60
2021/11/07 05:40:32;;;;;;;3.25;1.52;;;9.70;93.20;;;;;;4891714;29;20072;-60
2021/11/07 05:42:59;;;;;;;4.05;1.40;;;9.60;93.40;;;;;;4874625;29;20103;-60
2021/11/07 05:45:26;;;;;;;5.60;1.90;;;9.60;93.50;;;;;;4891272;29;20518;-60
2021/11/07 05:47:53;;;;;;;4.72;1.67;;;9.60;93.60;;;;;;4889030;29;20135;-60
2021/11/07 05:50:20;;;;;;;3.30;1.45;;;9.50;93.70;;;;;;4846687;29;20691;-59
2021/11/07 05:52:47;;;;;;;4.47;1.52;;;9.60;93.80;;;;;;4887637;29;20107;-60
2021/11/07 05:55:14;;;;;;;3.85;1.42;;;9.50;94.00;;;;;;4889110;29;20547;-60
2021/11/07 05:57:41;;;;;;;4.00;1.50;;;9.50;94.20;;;;;;4872258;29;20143;-60
2021/11/07 06:00:09;;;;;;;4.03;1.40;;;9.40;94.20;;;;;;4872859;29;20414;-60
2021/11/07 06:02:35;;;;;;;4.28;1.70;;;9.40;94.40;;;;;;4870975;29;20049;-60
2021/11/07 06:05:03;;;;;;;2.70;1.17;;;9.40;94.70;;;;;;4870176;29;20433;-60
2021/11/07 06:07:30;;;;;;;4.13;1.58;;;9.40;94.60;;;;;;4885290;29;20091;-60
2021/11/07 06:09:56;;;;;;;5.43;1.13;;;9.30;94.70;;;;;;4876344;29;20136;-60
2021/11/07 06:12:23;;;;;;;3.92;1.30;;;9.30;94.80;;;;;;4887173;29;20493;-60
2021/11/07 06:14:50;;;;;;;3.03;1.10;;;9.30;94.90;;;;;;4870764;29;20579;-60
2021/11/07 06:17:17;;;;;;;2.67;1.30;;;9.30;94.90;;;;;;4888347;29;20159;-60
2021/11/07 06:19:43;;;;;;;3.15;1.55;;;9.30;95.00;;;;;;4859113;29;20139;-60
2021/11/07 06:22:10;;;;;;;2.13;1.30;;;9.20;95.10;;;;;;4871239;29;20049;-60
2021/11/07 06:24:37;;;;;;;4.28;1.50;;;9.20;95.20;;;;;;4882612;29;20095;-60
2021/11/07 06:27:05;;;;;;;3.50;1.40;;;9.20;95.30;;;;;;4886984;29;20080;-60
2021/11/07 06:29:32;;;;;;;4.45;1.42;;;9.20;95.50;;;;;;4877871;29;20475;-60
2021/11/07 06:31:59;;;;;;;5.97;2.17;;;9.10;95.50;;;;;;4871520;29;20601;-60
2021/11/07 06:34:26;;;;;;;3.20;1.45;;;9.10;95.50;;;;;;4873071;29;20511;-60
2021/11/07 06:36:53;;;;;;;3.08;1.50;;;9.10;95.60;;;;;;4884943;29;20048;-61
2021/11/07 06:39:20;;;;;;;4.65;1.63;;;9.10;95.70;;;;;;4864458;29;20457;-60
2021/11/07 06:41:50;;;;;;;3.03;1.40;;;9.00;95.70;;;;;;4872429;29;20056;-59
2021/11/07 06:44:16;;;;;;;3.38;2.08;;;9.00;95.80;;;;;;4872695;29;20053;-59
2021/11/07 06:46:43;;;;;;;6.25;1.60;;;9.00;95.80;;;;;;4879447;29;20100;-61
2021/11/07 06:49:12;;;;;;;4.85;1.63;;;9.00;95.80;;;;;;4875863;29;20045;-60
2021/11/07 06:51:43;;;;;;;1.95;1.10;;;9.00;95.90;;;;;;4891137;29;20061;-60
2021/11/07 06:54:10;;;;;;;3.30;1.33;;;9.00;95.80;;;;;;4892326;29;20091;-60
2021/11/07 06:56:37;;;;;;;2.85;1.23;;;8.90;95.90;;;;;;4858520;29;20561;-59
2021/11/07 06:59:04;;;;;;;2.15;1.00;;;9.00;95.90;;;;;;4868832;29;20152;-59
2021/11/07 07:01:31;;;;;;;5.53;1.58;;;8.90;95.90;;;;;;4892358;29;20136;-59
2021/11/07 07:03:58;;;;;;;4.38;1.52;;;8.90;96.00;;;;;;4890465;29;20457;-59
2021/11/07 07:06:26;;;;;;;2.75;0.98;;;8.90;96.00;;;;;;4887477;29;20140;-59
2021/11/07 07:08:56;;;;;;;3.17;1.52;;;8.90;96.00;;;;;;4889857;29;20076;-59
2021/11/07 07:11:27;;;;;;;5.63;1.40;;;8.90;96.30;;;;;;4874428;29;20076;-59
2021/11/07 07:14:02;;;;;;;4.95;1.63;;;8.90;96.20;;;;;;4890779;29;20120;-59
2021/11/07 07:19:04;;;;;;;3.35;1.55;;;8.90;96.20;;;;;;4859114;29;20564;-59
2021/11/07 07:21:50;;;;;;;2.30;1.02;;;8.80;96.20;;;;;;4888676;29;20060;-59
2021/11/07 07:34:19;;;;;;;2.88;1.35;;;8.90;96.30;;;;;;4880598;29;20072;-60
2021/11/07 07:36:46;;;;;;;3.33;1.38;;;8.90;96.30;;;;;;4869737;29;20586;-60
2021/11/07 07:39:12;;;;;;;2.88;1.10;;;8.90;96.30;;;;;;4875894;29;20084;-60
2021/11/07 07:41:40;;;;;;;3.47;1.40;;;8.90;96.30;;;;;;4875318;29;20076;-59
2021/11/07 07:44:07;;;;;;;2.42;1.27;;;8.90;96.30;;;;;;4890248;29;20098;-59
2021/11/07 07:46:40;;;;;;;2.10;0.88;;;8.90;96.30;;;;;;4874221;29;20097;-59
2021/11/07 07:49:07;;;;;;;3.88;1.13;;;8.90;96.30;;;;;;4884694;29;20079;-59
2021/11/07 07:51:37;;;;;;;2.63;1.10;;;9.00;96.30;;;;;;4864688;29;20081;-59
2021/11/07 07:54:06;;;;;;;3.03;1.30;;;9.00;96.30;;;;;;4890315;29;20099;-60
2021/11/07 07:56:33;;;;;;;4.18;1.38;;;9.00;96.30;;;;;;4870707;29;20095;-59
2021/11/07 07:59:01;;;;;;;6.32;1.30;;;9.00;96.20;;;;;;4874217;29;20599;-59
2021/11/07 08:01:28;;;;;;;4.43;1.10;;;9.10;96.20;;;;;;4888460;29;20135;-59
2021/11/07 08:03:54;;;;;;;4.68;1.33;;;9.10;96.20;;;;;;4880640;29;20624;-59
2021/11/07 08:06:21;;;;;;;3.15;1.08;;;9.10;96.10;;;;;;4852915;29;20131;-60
2021/11/07 08:08:48;;;;;;;4.55;1.40;;;9.20;96.00;;;;;;4875679;29;20057;-59
2021/11/07 08:11:15;;;;;;;4.38;1.63;;;9.20;96.00;;;;;;4882606;29;20118;-59
2021/11/07 08:13:42;;;;;;;2.40;1.10;;;9.20;96.00;;;;;;4882603;29;20068;-59
2021/11/07 08:16:09;;;;;;;4.82;1.70;;;9.20;96.10;;;;;;4873020;29;20798;-59
2021/11/07 08:18:36;;;;;;;3.95;1.63;;;9.20;96.10;;;;;;4868213;29;20677;-59
2021/11/07 08:21:03;;;;;;;5.53;1.60;;;9.20;96.10;;;;;;4872379;29;20052;-59
2021/11/07 08:23:31;;;;;;;5.28;1.50;;;9.20;96.00;;;;;;4873442;29;20056;-60
2021/11/07 08:25:58;;;;;;;3.20;1.30;;;9.20;96.10;;;;;;4871671;29;20493;-59
2021/11/07 08:28:25;;;;;;;1.63;0.90;;;9.30;96.10;;;;;;4872286;29;20065;-59
2021/11/07 08:30:56;;;;;;;4.50;1.48;;;9.30;96.20;;;;;;4847272;29;20484;-59
2021/11/07 08:33:23;;;;;;;2.92;1.27;;;9.30;95.90;;;;;;4868975;29;20481;-60
2021/11/07 08:35:52;;;;;;;3.90;1.40;;;9.30;95.90;;;;;;4857554;29;20125;-59
2021/11/07 08:38:30;;;;;;;4.03;1.83;;;9.40;95.90;;;;;;4878625;29;20068;-60
2021/11/07 08:41:04;;;;;;;3.80;1.52;;;9.40;95.80;;;;;;4880016;29;20057;-60
2021/11/07 09:05:28;;;;;;;5.18;2.10;;;9.90;95.20;;;;;;4866360;29;20556;-59
2021/11/07 09:10:33;;;;;;;4.55;2.20;;;9.90;94.80;;;;;;4881011;29;20136;-59
2021/11/07 09:13:01;;;;;;;4.72;1.67;;;10.00;94.80;;;;;;4883653;29;20127;-59
2021/11/07 09:15:31;;;;;;;5.10;1.80;;;10.00;94.70;;;;;;4885218;29;20108;-59
2021/11/07 09:17:59;;;;;;;5.28;1.98;;;10.10;94.60;;;;;;4880596;29;20135;-59
2021/11/07 09:26:09;;;;;;;7.75;2.50;;;10.30;94.40;;;;;;4884933;29;20590;-59
2021/11/07 09:28:54;;;;;;;7.40;1.83;;;10.30;94.20;;;;;;4880982;29;20164;-59
2021/11/07 09:37:09;;;;;;;7.72;2.20;;;10.40;93.80;;;;;;4882547;29;20087;-58
2021/11/07 09:39:36;;;;;;;7.85;2.00;;;10.50;93.80;;;;;;4877970;29;20096;-59
2021/11/07 09:44:40;;;;;;;5.95;2.08;;;10.50;93.80;;;;;;4881818;29;20160;-59
2021/11/07 09:47:33;;;;;;;6.15;1.75;;;10.50;93.50;;;;;;4881843;29;20115;-60
2021/11/07 09:50:00;;;;;;;4.20;1.38;;;10.60;93.70;;;;;;4872925;29;20081;-59
2021/11/07 09:52:33;;;;;;;3.53;1.67;;;10.70;93.80;;;;;;4853982;29;20176;-59
2021/11/07 09:55:02;;;;;;;5.15;1.70;;;10.70;93.50;;;;;;4853674;29;20145;-59
2021/11/07 09:57:29;;;;;;;5.63;2.10;;;10.70;93.30;;;;;;4863007;29;20746;-60
2021/11/07 09:59:59;;;;;;;5.97;2.03;;;10.80;93.60;;;;;;4883969;29;20624;-59
2021/11/07 10:02:26;;;;;;;5.57;1.67;;;10.80;93.70;;;;;;4865328;29;20056;-59
2021/11/07 10:04:54;;;;;;;5.97;2.40;;;10.90;93.30;;;;;;4877916;29;20077;-60
2021/11/07 10:07:24;;;;;;;5.32;1.92;;;11.00;93.40;;;;;;4871848;29;20136;-60
2021/11/07 10:09:55;;;;;;;4.82;1.65;;;11.10;92.70;;;;;;4873227;29;20140;-59
2021/11/07 10:12:33;;;;;;;4.05;2.15;;;11.20;92.40;;;;;;4876006;29;20148;-57
2021/11/07 10:15:03;;;;;;;5.07;2.53;;;11.20;92.10;;;;;;4847295;29;20670;-58
2021/11/07 10:22:57;;;;;;;5.47;2.08;;;11.50;90.50;;;;;;4876918;29;20552;-59
2021/11/07 10:25:36;;;;;;;6.80;1.92;;;11.60;90.20;;;;;;4834259;29;20123;-58
2021/11/07 10:28:28;;;;;;;9.60;2.78;;;11.60;89.30;;;;;;4875296;29;20044;-58
2021/11/07 10:31:06;;;;;;;8.02;2.60;;;11.70;88.00;;;;;;4865055;29;20604;-58
2021/11/07 10:34:02;;;;;;;8.13;3.03;;;11.70;88.00;;;;;;4871148;29;20139;-59
2021/11/07 10:47:24;;;;;;;9.70;3.33;;;12.20;85.20;;;;;;4871642;29;20131;-58
2021/11/07 10:52:38;;;;;;;11.43;3.33;;;12.10;84.90;;;;;;4854380;29;20049;-58
2021/11/07 10:55:24;;;;;;;9.48;3.03;;;12.10;83.20;;;;;;4834832;29;20772;-59
2021/11/07 10:57:57;;;;;;;9.02;2.83;;;12.10;84.30;;;;;;4862161;29;20680;-59
2021/11/07 11:00:25;;;;;;;6.85;2.40;;;12.10;83.00;;;;;;4855483;29;20057;-58
2021/11/07 11:03:03;;;;;;;10.05;2.70;;;12.10;83.80;;;;;;4863126;29;20136;-59
2021/11/07 11:05:43;;;;;;;5.72;2.15;;;12.10;81.50;;;;;;4841279;29;20160;-59
2021/11/07 11:08:51;;;;;;;8.00;2.08;;;12.20;83.30;;;;;;4840689;29;20521;-59
2021/11/07 11:24:46;;;;;;;10.35;3.03;;;12.20;81.50;;;;;;4863619;29;20152;-58
2021/11/07 11:27:21;;;;;;;9.65;3.03;;;12.20;81.90;;;;;;4855089;29;20053;-58
2021/11/07 11:29:55;;;;;;;6.88;2.35;;;12.20;80.70;;;;;;4835333;29;20087;-59
2021/11/07 11:35:17;;;;;;;5.43;2.08;;;12.50;79.40;;;;;;4852648;29;20113;-59
2021/11/07 11:40:19;;;;;;;6.70;2.60;;;12.70;78.60;;;;;;4851432;29;20223;-59
2021/11/07 11:45:44;;;;;;;8.25;2.50;;;13.00;76.50;;;;;;4830264;29;20053;-58
2021/11/07 11:51:20;;;;;;;9.98;3.10;;;13.40;75.40;;;;;;4855492;29;20087;-57
2021/11/07 12:00:44;;;;;;;9.10;2.88;;;13.60;74.00;;;;;;4872903;29;20448;-58
2021/11/07 12:05:48;;;;;;;7.15;2.95;;;13.90;71.80;;;;;;4857379;29;20131;-58
2021/11/07 12:08:48;;;;;;;6.38;2.35;;;13.90;72.30;;;;;;4873784;29;20084;-59
2021/11/07 12:11:29;;;;;;;5.57;2.30;;;14.10;71.00;;;;;;4850427;29;20179;-59
2021/11/07 12:14:50;;;;;;;7.30;2.17;;;14.00;72.10;;;;;;4867450;29;20393;-59
2021/11/07 12:16:59;;;;;;;5.32;1.65;;;14.00;70.80;;;;;;4869928;29;20545;-58
2021/11/07 12:19:41;;;;;;;7.32;2.47;;;14.10;69.90;;;;;;4871938;29;20139;-59
2021/11/07 12:22:22;;;;;;;6.23;2.73;;;14.00;68.30;;;;;;4880355;29;20044;-59
2021/11/07 12:24:49;;;;;;;4.68;2.63;;;14.00;68.70;;;;;;4854391;29;20336;-59
2021/11/07 12:27:31;;;;;;;5.70;2.42;;;14.00;69.30;;;;;;4883394;29;20567;-58
2021/11/07 12:30:25;;;;;;;5.82;2.55;;;14.10;69.30;;;;;;4879493;29;20104;-59
2021/11/07 12:33:19;;;;;;;8.65;2.65;;;14.30;69.00;;;;;;4871258;29;20083;-59
2021/11/07 12:36:31;;;;;;;6.22;2.25;;;14.30;68.40;;;;;;4873097;29;20140;-58
2021/11/07 12:41:27;;;;;;;5.28;2.20;;;14.50;68.30;;;;;;4854012;29;20060;-59
2021/11/07 12:44:05;;;;;;;5.30;2.53;;;14.60;66.70;;;;;;4884867;29;20057;-59
2021/11/07 12:49:29;;;;;;;6.13;2.05;;;14.70;68.10;;;;;;4881653;29;20049;-59
2021/11/07 12:52:04;;;;;;;11.10;3.13;;;14.70;66.70;;;;;;4861297;29;20113;-59
2021/11/07 12:54:42;;;;;;;5.15;2.20;;;14.80;67.30;;;;;;4862537;29;20144;-59
2021/11/07 12:57:14;;;;;;;6.65;2.22;;;14.80;67.80;;;;;;4863165;29;20049;-60
2021/11/07 12:59:44;;;;;;;7.85;2.55;;;14.90;67.10;;;;;;4860948;29;20378;-59
2021/11/07 13:02:19;;;;;;;8.65;2.45;;;15.10;67.80;;;;;;4863041;29;20457;-57
2021/11/07 13:04:55;;;;;;;6.65;3.20;;;14.90;67.40;;;;;;4863650;29;20624;-58
2021/11/07 13:07:28;;;;;;;6.90;2.47;;;14.90;67.80;;;;;;4839591;29;20133;-58
2021/11/07 13:10:04;;;;;;;6.20;2.03;;;14.90;67.10;;;;;;4854533;29;20827;-57
2021/11/07 13:15:22;;;;;;;6.25;2.55;;;15.00;66.20;;;;;;4851592;29;20183;-58
2021/11/07 13:21:14;;;;;;;8.68;2.85;;;14.80;67.30;;;;;;4860745;29;20084;-58
2021/11/07 13:23:53;;;;;;;5.97;2.33;;;14.80;65.80;;;;;;4853025;29;21005;-57
2021/11/07 13:26:39;;;;;;;6.30;2.83;;;14.80;66.50;;;;;;4843218;29;20660;-58
2021/11/07 13:29:16;;;;;;;7.03;2.40;;;14.80;66.50;;;;;;4838733;29;20496;-57
2021/11/07 13:32:15;;;;;;;9.80;3.33;;;14.70;66.50;;;;;;4848943;29;20144;-57
2021/11/07 13:35:11;;;;;;;6.30;2.45;;;14.70;67.10;;;;;;4849940;29;20584;-57
2021/11/07 13:37:45;;;;;;;8.88;2.78;;;14.90;66.80;;;;;;4861278;29;20117;-57
2021/11/07 13:40:26;;;;;;;8.45;2.58;;;14.80;66.40;;;;;;4864451;29;20168;-58
2021/11/07 13:42:59;;;;;;;9.77;3.05;;;14.60;66.50;;;;;;4847354;29;20136;-58
2021/11/07 13:45:30;;;;;;;7.05;2.50;;;14.80;65.90;;;;;;4865762;29;20456;-58
2021/11/07 13:48:00;;;;;;;8.02;2.55;;;14.90;64.80;;;;;;4865219;29;20057;-58
2021/11/07 13:50:32;;;;;;;6.53;3.58;;;15.10;64.40;;;;;;4866086;29;20362;-58
2021/11/07 13:53:00;;;;;;;8.38;2.97;;;15.10;64.00;;;;;;4855066;29;20140;-58
2021/11/07 13:55:30;;;;;;;9.02;3.15;;;15.30;63.60;;;;;;4860904;29;20112;-56
2021/11/07 13:58:09;;;;;;;6.15;2.72;;;15.50;62.60;;;;;;4874008;29;20143;-58
2021/11/07 14:00:36;;;;;;;8.70;3.03;;;15.60;62.00;;;;;;4879941;29;20529;-58
2021/11/07 14:03:03;;;;;;;7.60;2.75;;;15.60;61.60;;;;;;4878362;29;20059;-58
2021/11/07 14:05:30;;;;;;;7.35;3.10;;;15.40;61.30;;;;;;4879827;29;20119;-58
2021/11/07 14:08:02;;;;;;;5.82;2.45;;;15.30;62.90;;;;;;4875436;29;20226;-58
2021/11/07 14:10:34;;;;;;;5.28;2.53;;;15.60;62.00;;;;;;4871124;29;20056;-58
2021/11/07 14:13:10;;;;;;;6.30;2.55;;;15.80;61.70;;;;;;4860777;29;20064;-58
2021/11/07 14:15:40;;;;;;;7.07;2.60;;;15.50;62.00;;;;;;4872910;29;20313;-56
2021/11/07 14:18:23;;;;;;;6.60;2.63;;;15.50;63.50;;;;;;4876973;29;20060;-58
2021/11/07 14:21:04;;;;;;;7.65;2.70;;;15.50;62.60;;;;;;4852594;29;20064;-58
2021/11/07 14:26:16;;;;;;;8.18;3.00;;;14.90;64.90;;;;;;4866409;29;20131;-58
2021/11/07 14:32:05;;;;;;;4.40;2.15;;;14.90;65.10;;;;;;4873220;29;20120;-58
2021/11/07 14:37:17;;;;;;;7.63;2.55;;;15.10;64.70;;;;;;4855780;29;20076;-59
2021/11/07 14:39:59;;;;;;;4.28;1.70;;;15.00;63.80;;;;;;4873234;29;20144;-58
2021/11/07 14:45:21;;;;;;;6.43;2.20;;;15.00;64.90;;;;;;4848729;29;20132;-58
2021/11/07 14:48:36;;;;;;;11.95;3.40;;;14.80;63.90;;;;;;4864675;29;20053;-58
2021/11/07 15:02:29;;;;;;;6.15;2.35;;;13.50;68.50;;;;;;4890054;29;20056;-57
2021/11/07 15:05:11;;;;;;;7.72;2.33;;;13.50;69.00;;;;;;4890280;29;20052;-58
2021/11/07 15:07:49;;;;;;;5.97;2.30;;;13.30;70.10;;;;;;4887943;29;20140;-57
2021/11/07 15:13:15;;;;;;;8.13;2.45;;;12.90;71.20;;;;;;4889811;29;20048;-57
2021/11/07 15:16:33;;;;;;;5.22;2.08;;;12.90;72.00;;;;;;4879447;29;20168;-57
2021/11/07 15:23:38;;;;;;;9.88;3.38;;;12.90;72.50;;;;;;4871350;29;20140;-57
2021/11/07 15:26:27;;;;;;;5.55;2.22;;;13.00;72.60;;;;;;4870921;29;20332;-58
2021/11/07 15:29:09;;;;;;;5.50;2.17;;;12.90;72.10;;;;;;4871275;29;20081;-58
2021/11/07 15:31:36;;;;;;;6.80;2.00;;;12.90;72.60;;;;;;4871191;29;20091;-58
2021/11/07 15:34:08;;;;;;;6.97;2.78;;;12.80;73.30;;;;;;4873663;29;20048;-58
2021/11/07 15:36:46;;;;;;;5.95;1.88;;;12.70;74.20;;;;;;4870621;29;20111;-58
2021/11/07 15:39:18;;;;;;;7.15;2.90;;;12.60;74.60;;;;;;4890463;29;20810;-58
2021/11/07 15:42:06;;;;;;;7.78;2.05;;;12.60;75.00;;;;;;4872619;29;20425;-57
2021/11/07 15:44:35;;;;;;;6.18;2.45;;;12.50;75.50;;;;;;4858335;29;20466;-56
2021/11/07 15:47:04;;;;;;;5.40;2.25;;;12.40;76.40;;;;;;4889010;29;20167;-58
2021/11/07 15:49:35;;;;;;;7.40;2.30;;;12.30;76.70;;;;;;4890066;29;20052;-57
2021/11/07 15:53:07;;;;;;;3.58;1.65;;;12.30;77.70;;;;;;4877986;29;20248;-58
2021/11/07 15:57:38;;;;;;;3.50;1.73;;;12.10;78.50;;;;;;4870387;29;20072;-58
2021/11/07 16:02:59;;;;;;;4.28;1.75;;;11.90;79.70;;;;;;4885968;29;20148;-58
2021/11/07 16:05:38;;;;;;;2.60;1.20;;;11.80;80.20;;;;;;4868798;29;20473;-59
2021/11/07 16:08:32;;;;;;;3.72;1.60;;;11.80;80.60;;;;;;4868943;29;20136;-58
2021/11/07 16:18:35;;;;;;;4.55;2.10;;;11.40;83.30;;;;;;4888345;29;20491;-58
2021/11/07 16:21:02;;;;;;;3.05;1.52;;;11.30;83.20;;;;;;4887515;29;20065;-58